Marathon Airport
CYSP : now visible

Airfield :











YOU CAN JOIN US ON...

 
LOGIN :

Register | Disclaimer

   EN    FR    IT 

 









Legend :    VFR   Marginal VFR   IFR   Intensive IFR   Very Intensive IFR
Visi :
Ceiling :
>= 8 km
>= 3000ft
5 to 8 km
1000 to 3000 ft
1500m to 5 km
500 to 1000 ft
800 to 1500m
200 to 500 ft
< 800m
< 200 ft
Symbols :   Thunderstorms  Fog  Heavy snow  Heavy precipitations  Wind > 20 kt






- Airport Elevation : 1035 ft
- IATA code : YSP


CYSP - Marathon

CURRENT METAR :
  • 301700Z 22005KT 15SM FEW034 BKN250 17/10 A3016 RMK SC3CI2 SLP220 DENSITY ALT 1200FT

EXPIRED METARs :
  • 301600Z 24005KT 15SM SCT034 SCT250 16/09 A3018 RMK SC3CS1 SLP227 DENSITY ALT 1100FT
  • 301500Z 26006KT 15SM SCT250 15/07 A3019 RMK CS3 SLP233
  • 301400Z 27004KT 200V340 15SM FEW250 14/07 A3019 RMK CS2 SLP231

TAF TAF CYSP
Valid from the 30 at 14:00 until the 30 at 21:00 UTC


301341Z 3014/3021 VRB03KT P6SM FEW250
FM301800 24008KT P6SM SCT180
BECMG 3019/3021 BKN080 RMK NXT FCST WILL BE ISSUED AT 311345Z
CZYZ FIR / North America



MET'MAP, your aeronautical weather chart ! - Copyright ORBIFLY December 2007 - Disclaimer

ORBIFLY MET'MAP TEAM :

Programming & Development : Alexandra Zaïnal
Concept & original design : Baudouin d'Aumeries
Assistance for programming : Marc-Olivier Méhu
Technical & hardware support : Manuel Goepfert

Contact : metmap@orbifly.com




SOURCES & CREDITS :

   NOAA       Earth
Advisory